VNTH weather

Thamkharka Airport
Khotang Bazar, Sagarmatha, Nepal

Public forecast

Using degrees Celsius for public forecast. Weather courtesy of forecast.io.

METAR (pilot weather report)

Closest report is Bagdogra Airport, 81.8 nm (151.5 km) ESE. Retrieved 2019/07/20 01:30 UTC (39 minutes ago):

VEBD 200130Z 36006KT 5000 TSRABR SCT020 FEW030CB BKN080 26/24 Q1005 TEMPO 2000 TSRA

TAF (pilot weather forecast)

Forecast is more than 12 hours old.

Closest forecast is Bagdogra Airport, 81.8 nm (151.5 km) ESE. Retrieved 2019/07/19 06:30 UTC (20 hours ago):

TAF VEBD 190330Z 1906/1918 03010KT 6000 SCT030 SCT100 TEMPO 1908/1910 2000 TSRA FEW030CB BKN080